RJFA(METAR)
12/11 17:23
RJFA 110823Z 13003KT 6000 -RA FEW006 SCT010 BKN015 08/08 Q1019
RMK 1ST006 3ST010 5CU015 A3011=
戻る
トップページへ戻る
IMOC Co,.Ltd.